createdAt,value
2023-02-08T00:03:34.410Z,103177.16
2023-02-08T00:08:26.194Z,102762.75
2023-02-08T00:13:19.421Z,103050.91
2023-02-08T00:18:11.320Z,103269.66
2023-02-08T00:23:03.044Z,103273.91
2023-02-08T00:27:54.702Z,102767.94
2023-02-08T00:32:46.281Z,102981.25
2023-02-08T00:37:37.955Z,102969.28
2023-02-08T00:42:30.187Z,103207.72
2023-02-08T00:47:21.983Z,102868.34
2023-02-08T00:52:13.605Z,103290.75
2023-02-08T00:57:05.249Z,103168.97
2023-02-08T01:01:56.996Z,103220.38
2023-02-08T01:06:48.642Z,103155.47
2023-02-08T01:11:40.261Z,103280.88
2023-02-08T01:16:34.095Z,103276.22
2023-02-08T01:21:28.834Z,103281.25
2023-02-08T01:26:22.475Z,103174.72
2023-02-08T01:31:20.006Z,103276.38
2023-02-08T01:36:12.281Z,102926.50
2023-02-08T01:41:11.214Z,103183.09
2023-02-08T01:46:02.858Z,103274.16
2023-02-08T01:50:59.813Z,103279.66
2023-02-08T01:55:57.647Z,102929.03
2023-02-08T02:00:49.298Z,103142.50
2023-02-08T02:05:48.706Z,103223.88
2023-02-08T02:10:42.531Z,102708.81
2023-02-08T02:15:35.289Z,103180.91
2023-02-08T02:20:53.380Z,103043.84
2023-02-08T02:26:03.815Z,103261.69
2023-02-08T02:31:08.849Z,103263.44
2023-02-08T02:36:07.391Z,103236.00
2023-02-08T02:41:37.648Z,103258.41
2023-02-08T02:46:43.750Z,103271.13
2023-02-08T02:51:38.286Z,103263.94
2023-02-08T02:56:43.063Z,103208.97
2023-02-08T03:01:35.145Z,103097.41
2023-02-08T03:06:36.474Z,103251.25
2023-02-08T03:11:39.861Z,103093.03
2023-02-08T03:17:16.558Z,103245.59
2023-02-08T03:22:23.679Z,103252.56
2023-02-08T03:27:27.487Z,103262.91
2023-02-08T03:32:25.775Z,103256.94
2023-02-08T03:37:25.844Z,103231.97
2023-02-08T03:42:24.710Z,103126.31
2023-02-08T03:47:22.145Z,102996.63
2023-02-08T03:52:14.444Z,103064.72
2023-02-08T03:57:15.751Z,103150.47
2023-02-08T04:02:12.394Z,103165.88
2023-02-08T04:07:04.904Z,103122.78
2023-02-08T04:11:56.611Z,103099.97
2023-02-08T04:16:48.223Z,103158.91
2023-02-08T04:21:39.871Z,103155.38
2023-02-08T04:26:31.584Z,103258.56
2023-02-08T04:31:23.208Z,103151.81
2023-02-08T04:36:14.976Z,103133.44
2023-02-08T04:41:06.628Z,103248.78
2023-02-08T04:45:58.296Z,103168.41
2023-02-08T04:50:49.861Z,103302.03
2023-02-08T04:55:41.762Z,103228.84
2023-02-08T05:00:33.318Z,103085.78
2023-02-08T05:05:28.046Z,103052.25
2023-02-08T05:10:20.430Z,103258.47
2023-02-08T05:15:12.025Z,103163.63
2023-02-08T05:20:04.672Z,103114.81
2023-02-08T05:24:56.280Z,103102.16
2023-02-08T05:29:47.969Z,103128.06
2023-02-08T05:34:39.699Z,102995.41
2023-02-08T05:39:34.227Z,102749.78
2023-02-08T05:44:25.939Z,103008.94
2023-02-08T05:49:17.564Z,103263.34
2023-02-08T05:54:09.176Z,102857.47
2023-02-08T05:59:01.846Z,103093.94
2023-02-08T06:03:54.171Z,103130.53
2023-02-08T06:08:46.208Z,103006.66
2023-02-08T06:13:39.013Z,102741.53
2023-02-08T06:18:30.647Z,102982.25
2023-02-08T06:23:23.436Z,103262.88
2023-02-08T06:28:15.098Z,102935.00
2023-02-08T06:33:06.720Z,103225.75
2023-02-08T06:37:58.891Z,103125.44
2023-02-08T06:42:50.751Z,103274.19
2023-02-08T06:47:42.647Z,103270.72
2023-02-08T06:52:34.315Z,103269.81
2023-02-08T06:57:26.006Z,103236.19
2023-02-08T07:02:20.447Z,102815.63
2023-02-08T07:07:13.406Z,102693.28
2023-02-08T07:12:05.421Z,103246.44
2023-02-08T07:16:57.162Z,103252.06
2023-02-08T07:21:48.760Z,103242.41
2023-02-08T07:26:40.437Z,102838.03
2023-02-08T07:31:32.171Z,103216.75
2023-02-08T07:36:23.841Z,102728.34
2023-02-08T07:41:15.729Z,103070.06
2023-02-08T07:46:17.173Z,103046.53
2023-02-08T07:51:10.154Z,103236.75
2023-02-08T07:56:01.897Z,102685.22
2023-02-08T08:00:53.480Z,103092.31
2023-02-08T08:05:45.270Z,103142.75
2023-02-08T08:10:37.159Z,103058.41
2023-02-08T08:15:29.590Z,103151.16
2023-02-08T08:20:21.454Z,102833.75
2023-02-08T08:25:13.845Z,103212.38
2023-02-08T08:30:14.275Z,103089.38
2023-02-08T08:35:07.363Z,103207.31
2023-02-08T08:39:58.955Z,103014.59
2023-02-08T08:44:50.633Z,102660.09
2023-02-08T08:49:43.792Z,103205.75
2023-02-08T08:54:35.765Z,103030.47
2023-02-08T08:59:27.853Z,103011.28
2023-02-08T09:04:22.643Z,102941.28
2023-02-08T09:09:14.421Z,102998.88
2023-02-08T09:14:06.448Z,103122.00
2023-02-08T09:19:02.100Z,103089.28
2023-02-08T09:23:53.814Z,103202.28
2023-02-08T09:28:45.943Z,102740.06
2023-02-08T09:33:37.524Z,102960.91
2023-02-08T09:38:29.349Z,103202.91
2023-02-08T09:43:45.340Z,103196.03
2023-02-08T09:48:40.347Z,103081.22
2023-02-08T09:53:47.551Z,102727.00
2023-02-08T09:59:00.832Z,102692.25
2023-02-08T10:03:58.053Z,103194.00
2023-02-08T10:08:52.414Z,103193.13
2023-02-08T10:14:13.741Z,103191.66
2023-02-08T10:19:32.538Z,103068.41
2023-02-08T10:24:45.548Z,102848.66
2023-02-08T10:29:54.620Z,103139.31
2023-02-08T10:34:51.581Z,103192.94
2023-02-08T10:39:43.410Z,103055.28
2023-02-08T10:44:58.135Z,103179.34
2023-02-08T10:49:58.060Z,103177.66
2023-02-08T10:54:49.791Z,103128.72
2023-02-08T11:00:22.415Z,103089.66
2023-02-08T11:05:18.021Z,103142.06
2023-02-08T11:10:19.087Z,103167.38
2023-02-08T11:15:23.448Z,102981.16
2023-02-08T11:20:28.804Z,103030.53
2023-02-08T11:25:53.532Z,103137.81
2023-02-08T11:30:56.069Z,103159.72
2023-02-08T11:35:55.695Z,103071.69
2023-02-08T11:40:47.320Z,103105.47
2023-02-08T11:45:39.212Z,102966.81
2023-02-08T11:50:34.026Z,103062.31
2023-02-08T11:55:28.333Z,103002.94
2023-02-08T12:00:26.305Z,103075.69
2023-02-08T12:05:22.718Z,103103.78
2023-02-08T12:10:39.564Z,103100.47
2023-02-08T12:15:58.537Z,103084.25
2023-02-08T12:21:25.392Z,103071.53
2023-02-08T12:26:25.653Z,103043.91
2023-02-08T12:31:28.120Z,103060.47
2023-02-08T12:36:32.626Z,103045.13
2023-02-08T12:41:46.490Z,103026.22
2023-02-08T12:46:43.998Z,103031.44
2023-02-08T12:51:41.571Z,103025.66
2023-02-08T12:56:38.289Z,102810.41
2023-02-08T13:01:40.927Z,102886.25
2023-02-08T13:06:49.714Z,103013.34
2023-02-08T13:11:57.867Z,103003.34
2023-02-08T13:16:55.002Z,103010.16
2023-02-08T13:21:46.856Z,102812.81
2023-02-08T13:26:40.244Z,102821.50
2023-02-08T13:31:41.736Z,102750.16
2023-02-08T13:36:36.579Z,102719.00
2023-02-08T13:41:29.920Z,102469.03
2023-02-08T13:46:24.579Z,102727.09
2023-02-08T13:51:31.612Z,102955.59
2023-02-08T13:56:49.159Z,102960.25
2023-02-08T14:02:13.057Z,102919.22
2023-02-08T14:07:16.305Z,102753.53
2023-02-08T14:12:19.027Z,102762.19
2023-02-08T14:17:19.354Z,102739.00
2023-02-08T14:22:10.801Z,102932.78
2023-02-08T14:27:28.404Z,102924.84
2023-02-08T14:32:25.064Z,102780.66
2023-02-08T14:37:21.571Z,102920.75
2023-02-08T14:42:14.250Z,102664.28
2023-02-08T14:47:36.933Z,102890.06
2023-02-08T14:52:29.948Z,102740.91
2023-02-08T14:57:28.927Z,102898.34
2023-02-08T15:02:23.381Z,102748.97
2023-02-08T15:07:47.771Z,102887.84
2023-02-08T15:12:40.698Z,102886.84
2023-02-08T15:17:44.332Z,102879.13
2023-02-08T15:22:38.428Z,102837.88
2023-02-08T15:27:34.512Z,102699.91
2023-02-08T15:32:28.540Z,102658.56
2023-02-08T15:37:20.589Z,102851.47
2023-02-08T15:42:18.031Z,102870.88
2023-02-08T15:47:17.362Z,102453.53
2023-02-08T15:52:16.870Z,102751.88
2023-02-08T15:57:33.398Z,102559.13
2023-02-08T16:02:31.032Z,102855.50
2023-02-08T16:07:31.203Z,102789.88
2023-02-08T16:12:24.924Z,102849.75
2023-02-08T16:17:41.807Z,102747.34
2023-02-08T16:22:33.559Z,102783.28
2023-02-08T16:27:28.252Z,102787.66
2023-02-08T16:32:22.925Z,102588.78
2023-02-08T16:37:27.374Z,102714.34
2023-02-08T16:42:33.924Z,102838.34
2023-02-08T16:47:28.764Z,102655.88
2023-02-08T16:52:20.754Z,102446.31
2023-02-08T16:57:12.399Z,102812.03
2023-02-08T17:02:09.453Z,102591.81
2023-02-08T17:07:01.074Z,102819.19
2023-02-08T17:11:52.703Z,102279.75
2023-02-08T17:16:44.323Z,102727.50
2023-02-08T17:21:36.106Z,102555.47
2023-02-08T17:26:32.289Z,102594.34
2023-02-08T17:31:24.193Z,102461.59
2023-02-08T17:36:17.692Z,102444.44
2023-02-08T17:41:18.480Z,102693.34
2023-02-08T17:46:11.748Z,102804.16
2023-02-08T17:51:08.834Z,102250.72
2023-02-08T17:56:00.528Z,102774.72
2023-02-08T18:00:52.152Z,102690.47
2023-02-08T18:05:43.808Z,102257.25
2023-02-08T18:10:35.440Z,102547.47
2023-02-08T18:15:27.259Z,102534.66
2023-02-08T18:20:18.987Z,102297.19
2023-02-08T18:25:11.760Z,102779.31
2023-02-08T18:30:03.925Z,102480.25
2023-02-08T18:34:56.032Z,102788.47
2023-02-08T18:39:48.442Z,102363.75
2023-02-08T18:44:40.276Z,102791.97
2023-02-08T18:49:32.172Z,102791.25
2023-02-08T18:54:23.810Z,102080.50
2023-02-08T18:59:15.402Z,102576.97
2023-02-08T19:04:07.183Z,102583.56
2023-02-08T19:09:01.659Z,102516.69
2023-02-08T19:13:56.355Z,102392.44
2023-02-08T19:18:48.754Z,102776.34
2023-02-08T19:23:40.704Z,102553.38
2023-02-08T19:28:33.814Z,102349.22
2023-02-08T19:33:25.381Z,102510.84
2023-02-08T19:38:18.897Z,102503.03
2023-02-08T19:43:10.572Z,102745.47
2023-02-08T19:48:02.152Z,102316.13
2023-02-08T19:52:53.780Z,102768.75
2023-02-08T19:57:45.474Z,102335.56
2023-02-08T20:02:38.440Z,102405.84
2023-02-08T20:07:30.079Z,102212.50
2023-02-08T20:12:22.138Z,102761.56
2023-02-08T20:17:13.875Z,102495.94
2023-02-08T20:22:05.604Z,102397.59
2023-02-08T20:26:57.563Z,102498.72
2023-02-08T20:31:53.425Z,102763.22
2023-02-08T20:36:57.373Z,102688.31
2023-02-08T20:41:57.234Z,102336.66
2023-02-08T20:46:48.834Z,102754.34
2023-02-08T20:51:40.648Z,102355.94
2023-02-08T20:56:35.483Z,102160.13
2023-02-08T21:01:28.625Z,102422.75
2023-02-08T21:06:26.485Z,102380.19
2023-02-08T21:11:24.987Z,102457.75
2023-02-08T21:16:17.981Z,102764.13
2023-02-08T21:21:10.279Z,102592.63
2023-02-08T21:26:03.573Z,102762.28
2023-02-08T21:31:00.817Z,102524.13
2023-02-08T21:35:52.928Z,102552.84
2023-02-08T21:40:45.086Z,102755.75
2023-02-08T21:45:37.367Z,102342.38
2023-02-08T21:50:47.887Z,102569.81
2023-02-08T21:55:45.264Z,102699.41
2023-02-08T22:00:37.433Z,102269.38
2023-02-08T22:05:29.428Z,102729.28
2023-02-08T22:10:26.908Z,102732.22
2023-02-08T22:15:21.106Z,102580.06
2023-02-08T22:20:14.853Z,102724.56
2023-02-08T22:25:07.409Z,102734.91
2023-02-08T22:29:59.374Z,102593.59
2023-02-08T22:34:51.263Z,102617.38
2023-02-08T22:39:43.285Z,102478.31
2023-02-08T22:44:36.338Z,102301.13
2023-02-08T22:49:29.190Z,102483.72
2023-02-08T22:54:21.079Z,102426.53
2023-02-08T22:59:12.879Z,102405.78
2023-02-08T23:04:05.832Z,102635.88
2023-02-08T23:08:58.939Z,102738.84
2023-02-08T23:13:50.885Z,102526.38
2023-02-08T23:18:42.789Z,102704.84
2023-02-08T23:23:34.770Z,102264.41
2023-02-08T23:28:26.540Z,102251.56
2023-02-08T23:33:18.366Z,102514.41
2023-02-08T23:38:10.212Z,102640.25
2023-02-08T23:43:01.998Z,102603.97
2023-02-08T23:47:53.798Z,102225.03
2023-02-08T23:52:45.481Z,102667.72
2023-02-08T23:57:37.766Z,102412.59
